sensor_id;sensor_type;location;lat;lon;timestamp;temperature;humidity
67752;DHT22;54551;51.068;5.826;2022-07-19T00:02:02;22.00;99.90
67752;DHT22;54551;51.068;5.826;2022-07-19T00:04:29;21.90;99.90
67752;DHT22;54551;51.068;5.826;2022-07-19T00:06:55;21.80;99.90
67752;DHT22;54551;51.068;5.826;2022-07-19T00:09:22;21.70;99.90
67752;DHT22;54551;51.068;5.826;2022-07-19T00:11:48;21.60;99.90
67752;DHT22;54551;51.068;5.826;2022-07-19T00:14:15;21.50;99.90
67752;DHT22;54551;51.068;5.826;2022-07-19T00:16:41;21.40;99.90
67752;DHT22;54551;51.068;5.826;2022-07-19T00:19:07;21.30;99.90
67752;DHT22;54551;51.068;5.826;2022-07-19T00:21:33;21.20;99.90
67752;DHT22;54551;51.068;5.826;2022-07-19T00:23:59;21.20;99.90
67752;DHT22;54551;51.068;5.826;2022-07-19T00:26:29;21.20;99.90
67752;DHT22;54551;51.068;5.826;2022-07-19T00:28:56;21.10;99.90
67752;DHT22;54551;51.068;5.826;2022-07-19T00:31:22;21.10;99.90
67752;DHT22;54551;51.068;5.826;2022-07-19T00:33:49;21.10;99.90
67752;DHT22;54551;51.068;5.826;2022-07-19T00:36:15;21.20;99.90
67752;DHT22;54551;51.068;5.826;2022-07-19T00:38:41;21.20;99.90
67752;DHT22;54551;51.068;5.826;2022-07-19T00:41:07;21.20;99.90
67752;DHT22;54551;51.068;5.826;2022-07-19T00:43:32;21.30;99.90
67752;DHT22;54551;51.068;5.826;2022-07-19T00:45:59;21.30;99.90
67752;DHT22;54551;51.068;5.826;2022-07-19T00:48:24;21.30;99.90
67752;DHT22;54551;51.068;5.826;2022-07-19T00:50:50;21.30;99.90
67752;DHT22;54551;51.068;5.826;2022-07-19T00:53:18;21.40;99.90
67752;DHT22;54551;51.068;5.826;2022-07-19T00:55:45;21.30;99.90
67752;DHT22;54551;51.068;5.826;2022-07-19T00:58:12;21.40;99.90
67752;DHT22;54551;51.068;5.826;2022-07-19T01:00:42;21.40;99.90
67752;DHT22;54551;51.068;5.826;2022-07-19T01:03:08;21.30;99.90
67752;DHT22;54551;51.068;5.826;2022-07-19T01:05:34;21.30;99.90
67752;DHT22;54551;51.068;5.826;2022-07-19T01:08:00;21.20;99.90
67752;DHT22;54551;51.068;5.826;2022-07-19T01:10:27;21.20;99.90
67752;DHT22;54551;51.068;5.826;2022-07-19T01:12:53;21.10;99.90
67752;DHT22;54551;51.068;5.826;2022-07-19T01:15:21;21.00;99.90
67752;DHT22;54551;51.068;5.826;2022-07-19T01:17:48;21.00;99.90
67752;DHT22;54551;51.068;5.826;2022-07-19T01:20:14;21.00;99.90
67752;DHT22;54551;51.068;5.826;2022-07-19T01:22:41;21.00;99.90
67752;DHT22;54551;51.068;5.826;2022-07-19T01:25:08;20.90;99.90
67752;DHT22;54551;51.068;5.826;2022-07-19T01:27:42;20.90;99.90
67752;DHT22;54551;51.068;5.826;2022-07-19T01:30:13;20.80;99.90
67752;DHT22;54551;51.068;5.826;2022-07-19T01:32:40;20.80;99.90
67752;DHT22;54551;51.068;5.826;2022-07-19T01:35:07;20.80;99.90
67752;DHT22;54551;51.068;5.826;2022-07-19T01:37:34;20.70;99.90
67752;DHT22;54551;51.068;5.826;2022-07-19T01:40:01;20.70;99.90
67752;DHT22;54551;51.068;5.826;2022-07-19T01:42:27;20.70;99.90
67752;DHT22;54551;51.068;5.826;2022-07-19T01:44:52;20.70;99.90
67752;DHT22;54551;51.068;5.826;2022-07-19T01:47:18;20.60;99.90
67752;DHT22;54551;51.068;5.826;2022-07-19T01:49:44;20.60;99.90
67752;DHT22;54551;51.068;5.826;2022-07-19T01:52:10;20.50;99.90
67752;DHT22;54551;51.068;5.826;2022-07-19T01:54:36;20.50;99.90
67752;DHT22;54551;51.068;5.826;2022-07-19T01:57:02;20.50;99.90
67752;DHT22;54551;51.068;5.826;2022-07-19T01:59:28;20.40;99.90
67752;DHT22;54551;51.068;5.826;2022-07-19T02:01:53;20.40;99.90
67752;DHT22;54551;51.068;5.826;2022-07-19T02:04:19;20.40;99.90
67752;DHT22;54551;51.068;5.826;2022-07-19T02:06:45;20.40;99.90
67752;DHT22;54551;51.068;5.826;2022-07-19T02:09:11;20.40;99.90
67752;DHT22;54551;51.068;5.826;2022-07-19T02:11:37;20.40;99.90
67752;DHT22;54551;51.068;5.826;2022-07-19T02:14:04;20.40;99.90
67752;DHT22;54551;51.068;5.826;2022-07-19T02:16:31;20.50;99.90
67752;DHT22;54551;51.068;5.826;2022-07-19T02:18:56;20.50;99.90
67752;DHT22;54551;51.068;5.826;2022-07-19T02:21:22;20.50;99.90
67752;DHT22;54551;51.068;5.826;2022-07-19T02:23:48;20.40;99.90
67752;DHT22;54551;51.068;5.826;2022-07-19T02:26:14;20.40;99.90
67752;DHT22;54551;51.068;5.826;2022-07-19T02:28:40;20.30;99.90
67752;DHT22;54551;51.068;5.826;2022-07-19T02:31:06;20.20;99.90
67752;DHT22;54551;51.068;5.826;2022-07-19T02:33:32;20.10;99.90
67752;DHT22;54551;51.068;5.826;2022-07-19T02:35:58;20.00;99.90
67752;DHT22;54551;51.068;5.826;2022-07-19T02:38:24;19.80;99.90
67752;DHT22;54551;51.068;5.826;2022-07-19T02:40:49;19.70;99.90
67752;DHT22;54551;51.068;5.826;2022-07-19T02:43:15;19.70;99.90
67752;DHT22;54551;51.068;5.826;2022-07-19T02:45:41;19.60;99.90
67752;DHT22;54551;51.068;5.826;2022-07-19T02:48:10;19.50;99.90
67752;DHT22;54551;51.068;5.826;2022-07-19T02:50:37;19.50;99.90
67752;DHT22;54551;51.068;5.826;2022-07-19T02:53:03;19.40;99.90
67752;DHT22;54551;51.068;5.826;2022-07-19T02:55:29;19.50;99.90
67752;DHT22;54551;51.068;5.826;2022-07-19T02:57:55;19.50;99.90
67752;DHT22;54551;51.068;5.826;2022-07-19T03:00:20;19.50;99.90
67752;DHT22;54551;51.068;5.826;2022-07-19T03:02:46;19.60;99.90
67752;DHT22;54551;51.068;5.826;2022-07-19T03:05:12;19.60;99.90
67752;DHT22;54551;51.068;5.826;2022-07-19T03:07:38;19.70;99.90
67752;DHT22;54551;51.068;5.826;2022-07-19T03:10:05;19.70;99.90
67752;DHT22;54551;51.068;5.826;2022-07-19T03:12:31;19.70;99.90
67752;DHT22;54551;51.068;5.826;2022-07-19T03:14:57;19.80;99.90
67752;DHT22;54551;51.068;5.826;2022-07-19T03:17:23;19.80;99.90
67752;DHT22;54551;51.068;5.826;2022-07-19T03:19:49;19.80;99.90
67752;DHT22;54551;51.068;5.826;2022-07-19T03:22:14;19.80;99.90
67752;DHT22;54551;51.068;5.826;2022-07-19T03:24:40;19.80;99.90
67752;DHT22;54551;51.068;5.826;2022-07-19T03:27:06;19.80;99.90
67752;DHT22;54551;51.068;5.826;2022-07-19T03:29:32;19.80;99.90
67752;DHT22;54551;51.068;5.826;2022-07-19T03:31:58;19.80;99.90
67752;DHT22;54551;51.068;5.826;2022-07-19T03:34:25;19.70;99.90
67752;DHT22;54551;51.068;5.826;2022-07-19T03:36:51;19.80;99.90
67752;DHT22;54551;51.068;5.826;2022-07-19T03:39:17;19.70;99.90
67752;DHT22;54551;51.068;5.826;2022-07-19T03:41:43;19.80;99.90
67752;DHT22;54551;51.068;5.826;2022-07-19T03:44:09;19.80;99.90
67752;DHT22;54551;51.068;5.826;2022-07-19T03:46:34;19.80;99.90
67752;DHT22;54551;51.068;5.826;2022-07-19T03:49:00;19.80;99.90
67752;DHT22;54551;51.068;5.826;2022-07-19T03:51:26;19.80;99.90
67752;DHT22;54551;51.068;5.826;2022-07-19T03:53:52;19.80;99.90
67752;DHT22;54551;51.068;5.826;2022-07-19T03:56:18;19.80;99.90
67752;DHT22;54551;51.068;5.826;2022-07-19T03:58:49;19.70;99.90
67752;DHT22;54551;51.068;5.826;2022-07-19T04:01:16;19.70;99.90
67752;DHT22;54551;51.068;5.826;2022-07-19T04:03:42;19.60;99.90
67752;DHT22;54551;51.068;5.826;2022-07-19T04:06:10;19.60;99.90
67752;DHT22;54551;51.068;5.826;2022-07-19T04:08:36;19.60;99.90
67752;DHT22;54551;51.068;5.826;2022-07-19T04:11:03;19.50;99.90
67752;DHT22;54551;51.068;5.826;2022-07-19T04:13:32;19.50;99.90
67752;DHT22;54551;51.068;5.826;2022-07-19T04:15:58;19.50;99.90
67752;DHT22;54551;51.068;5.826;2022-07-19T04:18:24;19.50;99.90
67752;DHT22;54551;51.068;5.826;2022-07-19T04:20:50;19.50;99.90
67752;DHT22;54551;51.068;5.826;2022-07-19T04:23:15;19.40;99.90
67752;DHT22;54551;51.068;5.826;2022-07-19T04:25:41;19.40;99.90
67752;DHT22;54551;51.068;5.826;2022-07-19T04:28:07;19.30;99.90
67752;DHT22;54551;51.068;5.826;2022-07-19T04:30:33;19.30;99.90
67752;DHT22;54551;51.068;5.826;2022-07-19T04:32:59;19.30;99.90
67752;DHT22;54551;51.068;5.826;2022-07-19T04:35:25;19.30;99.90
67752;DHT22;54551;51.068;5.826;2022-07-19T04:37:51;19.40;99.90
67752;DHT22;54551;51.068;5.826;2022-07-19T04:40:17;19.50;99.90
67752;DHT22;54551;51.068;5.826;2022-07-19T04:42:43;19.60;99.90
67752;DHT22;54551;51.068;5.826;2022-07-19T04:45:09;19.70;99.90
67752;DHT22;54551;51.068;5.826;2022-07-19T04:47:35;19.80;99.90
67752;DHT22;54551;51.068;5.826;2022-07-19T04:50:01;19.90;99.90
67752;DHT22;54551;51.068;5.826;2022-07-19T04:52:27;20.00;99.90
67752;DHT22;54551;51.068;5.826;2022-07-19T04:54:53;20.00;99.90
67752;DHT22;54551;51.068;5.826;2022-07-19T04:57:19;20.10;99.90
67752;DHT22;54551;51.068;5.826;2022-07-19T04:59:44;20.10;99.90
67752;DHT22;54551;51.068;5.826;2022-07-19T05:02:10;20.10;99.90
67752;DHT22;54551;51.068;5.826;2022-07-19T05:04:36;20.20;99.90
67752;DHT22;54551;51.068;5.826;2022-07-19T05:07:02;20.30;99.90
67752;DHT22;54551;51.068;5.826;2022-07-19T05:09:28;20.50;99.90
67752;DHT22;54551;51.068;5.826;2022-07-19T05:11:55;20.60;99.90
67752;DHT22;54551;51.068;5.826;2022-07-19T05:14:21;20.80;99.90
67752;DHT22;54551;51.068;5.826;2022-07-19T05:16:47;21.10;99.90
67752;DHT22;54551;51.068;5.826;2022-07-19T05:19:16;21.30;99.90
67752;DHT22;54551;51.068;5.826;2022-07-19T05:21:42;21.50;99.90
67752;DHT22;54551;51.068;5.826;2022-07-19T05:24:08;21.50;99.90
67752;DHT22;54551;51.068;5.826;2022-07-19T05:26:34;21.60;99.90
67752;DHT22;54551;51.068;5.826;2022-07-19T05:29:02;21.70;99.90
67752;DHT22;54551;51.068;5.826;2022-07-19T05:31:29;21.70;99.90
67752;DHT22;54551;51.068;5.826;2022-07-19T05:33:55;21.80;99.90
67752;DHT22;54551;51.068;5.826;2022-07-19T05:36:21;21.80;99.90
67752;DHT22;54551;51.068;5.826;2022-07-19T05:38:47;21.90;99.90
67752;DHT22;54551;51.068;5.826;2022-07-19T05:41:13;22.10;99.90
67752;DHT22;54551;51.068;5.826;2022-07-19T05:43:41;22.20;99.90
67752;DHT22;54551;51.068;5.826;2022-07-19T05:46:08;22.30;99.90
67752;DHT22;54551;51.068;5.826;2022-07-19T05:48:34;22.30;99.90
67752;DHT22;54551;51.068;5.826;2022-07-19T05:51:00;22.40;99.90
67752;DHT22;54551;51.068;5.826;2022-07-19T05:53:28;22.40;99.90
67752;DHT22;54551;51.068;5.826;2022-07-19T05:55:54;22.50;99.90
67752;DHT22;54551;51.068;5.826;2022-07-19T05:58:20;22.60;99.90
67752;DHT22;54551;51.068;5.826;2022-07-19T06:00:47;22.70;99.90
67752;DHT22;54551;51.068;5.826;2022-07-19T06:03:31;22.80;99.90
67752;DHT22;54551;51.068;5.826;2022-07-19T06:05:57;22.90;99.90
67752;DHT22;54551;51.068;5.826;2022-07-19T06:08:23;23.00;99.90
67752;DHT22;54551;51.068;5.826;2022-07-19T06:10:49;23.10;99.90
67752;DHT22;54551;51.068;5.826;2022-07-19T06:13:15;23.30;99.90
67752;DHT22;54551;51.068;5.826;2022-07-19T06:15:41;23.40;99.90
67752;DHT22;54551;51.068;5.826;2022-07-19T06:18:07;23.50;99.90
67752;DHT22;54551;51.068;5.826;2022-07-19T06:20:33;23.60;99.90
67752;DHT22;54551;51.068;5.826;2022-07-19T06:22:59;23.80;99.90
67752;DHT22;54551;51.068;5.826;2022-07-19T06:25:25;24.00;99.90
67752;DHT22;54551;51.068;5.826;2022-07-19T06:27:51;24.10;99.90
67752;DHT22;54551;51.068;5.826;2022-07-19T06:30:16;24.10;99.90
67752;DHT22;54551;51.068;5.826;2022-07-19T06:32:42;24.30;99.90
67752;DHT22;54551;51.068;5.826;2022-07-19T06:35:08;24.40;99.90
67752;DHT22;54551;51.068;5.826;2022-07-19T06:37:34;24.50;99.90
67752;DHT22;54551;51.068;5.826;2022-07-19T06:40:00;24.60;99.90
67752;DHT22;54551;51.068;5.826;2022-07-19T06:42:26;24.70;99.90
67752;DHT22;54551;51.068;5.826;2022-07-19T06:44:52;24.80;99.80
67752;DHT22;54551;51.068;5.826;2022-07-19T06:47:18;24.90;99.60
67752;DHT22;54551;51.068;5.826;2022-07-19T06:49:43;25.00;99.80
67752;DHT22;54551;51.068;5.826;2022-07-19T06:52:12;25.10;99.80
67752;DHT22;54551;51.068;5.826;2022-07-19T06:54:38;25.30;99.40
67752;DHT22;54551;51.068;5.826;2022-07-19T06:57:04;25.30;98.90
67752;DHT22;54551;51.068;5.826;2022-07-19T06:59:31;25.50;99.10
67752;DHT22;54551;51.068;5.826;2022-07-19T07:01:57;25.70;98.30
67752;DHT22;54551;51.068;5.826;2022-07-19T07:04:23;25.80;98.30
67752;DHT22;54551;51.068;5.826;2022-07-19T07:06:49;25.90;97.90
67752;DHT22;54551;51.068;5.826;2022-07-19T07:09:15;26.10;97.60
67752;DHT22;54551;51.068;5.826;2022-07-19T07:11:41;26.10;97.20
67752;DHT22;54551;51.068;5.826;2022-07-19T07:14:07;26.20;97.10
67752;DHT22;54551;51.068;5.826;2022-07-19T07:16:32;26.30;96.70
67752;DHT22;54551;51.068;5.826;2022-07-19T07:18:58;26.50;96.70
67752;DHT22;54551;51.068;5.826;2022-07-19T07:21:24;26.60;96.80
67752;DHT22;54551;51.068;5.826;2022-07-19T07:23:50;26.80;96.30
67752;DHT22;54551;51.068;5.826;2022-07-19T07:26:16;26.90;96.40
67752;DHT22;54551;51.068;5.826;2022-07-19T07:28:42;27.10;95.50
67752;DHT22;54551;51.068;5.826;2022-07-19T07:31:08;27.20;94.70
67752;DHT22;54551;51.068;5.826;2022-07-19T07:33:33;27.40;94.70
67752;DHT22;54551;51.068;5.826;2022-07-19T07:35:59;27.40;94.50
67752;DHT22;54551;51.068;5.826;2022-07-19T07:38:25;27.60;94.40
67752;DHT22;54551;51.068;5.826;2022-07-19T07:40:51;27.80;93.30
67752;DHT22;54551;51.068;5.826;2022-07-19T07:43:17;27.90;93.00
67752;DHT22;54551;51.068;5.826;2022-07-19T07:45:43;28.00;93.10
67752;DHT22;54551;51.068;5.826;2022-07-19T07:48:09;28.10;93.50
67752;DHT22;54551;51.068;5.826;2022-07-19T07:50:34;28.30;93.20
67752;DHT22;54551;51.068;5.826;2022-07-19T07:53:00;28.30;92.40
67752;DHT22;54551;51.068;5.826;2022-07-19T07:55:26;28.50;92.60
67752;DHT22;54551;51.068;5.826;2022-07-19T07:57:52;28.60;91.70
67752;DHT22;54551;51.068;5.826;2022-07-19T08:00:18;28.70;91.20
67752;DHT22;54551;51.068;5.826;2022-07-19T08:02:45;28.80;90.90
67752;DHT22;54551;51.068;5.826;2022-07-19T08:05:12;28.90;90.90
67752;DHT22;54551;51.068;5.826;2022-07-19T08:07:38;29.10;91.40
67752;DHT22;54551;51.068;5.826;2022-07-19T08:10:06;29.40;91.10
67752;DHT22;54551;51.068;5.826;2022-07-19T08:12:33;29.90;90.50
67752;DHT22;54551;51.068;5.826;2022-07-19T08:14:59;30.50;90.20
67752;DHT22;54551;51.068;5.826;2022-07-19T08:17:25;31.00;90.00
67752;DHT22;54551;51.068;5.826;2022-07-19T08:19:51;31.50;88.90
67752;DHT22;54551;51.068;5.826;2022-07-19T08:22:17;32.20;84.50
67752;DHT22;54551;51.068;5.826;2022-07-19T08:24:45;32.60;83.20
67752;DHT22;54551;51.068;5.826;2022-07-19T08:27:11;32.80;80.10
67752;DHT22;54551;51.068;5.826;2022-07-19T08:29:37;32.70;78.40
67752;DHT22;54551;51.068;5.826;2022-07-19T08:32:03;32.70;78.70
67752;DHT22;54551;51.068;5.826;2022-07-19T08:34:29;32.70;80.10
67752;DHT22;54551;51.068;5.826;2022-07-19T08:36:55;32.70;78.40
67752;DHT22;54551;51.068;5.826;2022-07-19T08:39:21;32.60;76.20
67752;DHT22;54551;51.068;5.826;2022-07-19T08:41:46;32.40;75.70
67752;DHT22;54551;51.068;5.826;2022-07-19T08:44:13;32.20;74.80
67752;DHT22;54551;51.068;5.826;2022-07-19T08:46:40;32.20;75.50
67752;DHT22;54551;51.068;5.826;2022-07-19T08:49:08;32.30;74.70
67752;DHT22;54551;51.068;5.826;2022-07-19T08:51:35;32.40;74.50
67752;DHT22;54551;51.068;5.826;2022-07-19T08:54:00;32.50;73.80
67752;DHT22;54551;51.068;5.826;2022-07-19T08:56:27;32.80;72.40
67752;DHT22;54551;51.068;5.826;2022-07-19T08:59:13;33.20;71.50
67752;DHT22;54551;51.068;5.826;2022-07-19T09:01:39;33.50;72.10
67752;DHT22;54551;51.068;5.826;2022-07-19T09:04:10;33.50;71.60
67752;DHT22;54551;51.068;5.826;2022-07-19T09:06:48;33.70;70.40
67752;DHT22;54551;51.068;5.826;2022-07-19T09:09:33;34.10;70.30
67752;DHT22;54551;51.068;5.826;2022-07-19T09:12:05;34.50;68.40
67752;DHT22;54551;51.068;5.826;2022-07-19T09:14:33;34.90;66.10
67752;DHT22;54551;51.068;5.826;2022-07-19T09:17:05;35.20;64.00
67752;DHT22;54551;51.068;5.826;2022-07-19T09:19:38;35.40;62.60
67752;DHT22;54551;51.068;5.826;2022-07-19T09:22:07;35.30;62.60
67752;DHT22;54551;51.068;5.826;2022-07-19T09:24:36;35.40;63.20
67752;DHT22;54551;51.068;5.826;2022-07-19T09:27:12;35.00;61.60
67752;DHT22;54551;51.068;5.826;2022-07-19T09:29:43;35.00;61.00
67752;DHT22;54551;51.068;5.826;2022-07-19T09:32:17;35.10;61.80
67752;DHT22;54551;51.068;5.826;2022-07-19T09:35:00;35.50;59.60
67752;DHT22;54551;51.068;5.826;2022-07-19T09:37:33;36.50;58.90
67752;DHT22;54551;51.068;5.826;2022-07-19T09:40:04;37.40;57.40
67752;DHT22;54551;51.068;5.826;2022-07-19T09:42:40;38.70;56.70
67752;DHT22;54551;51.068;5.826;2022-07-19T09:45:14;39.70;53.60
67752;DHT22;54551;51.068;5.826;2022-07-19T09:47:49;40.60;51.90
67752;DHT22;54551;51.068;5.826;2022-07-19T09:50:17;40.90;51.50
67752;DHT22;54551;51.068;5.826;2022-07-19T09:52:45;41.50;49.20
67752;DHT22;54551;51.068;5.826;2022-07-19T09:55:12;41.90;49.70
67752;DHT22;54551;51.068;5.826;2022-07-19T09:57:43;42.40;48.40
67752;DHT22;54551;51.068;5.826;2022-07-19T10:00:11;42.70;47.10
67752;DHT22;54551;51.068;5.826;2022-07-19T10:02:40;43.40;46.60
67752;DHT22;54551;51.068;5.826;2022-07-19T10:05:07;43.80;46.30
67752;DHT22;54551;51.068;5.826;2022-07-19T10:07:37;43.60;44.80
67752;DHT22;54551;51.068;5.826;2022-07-19T10:10:05;44.00;44.40
67752;DHT22;54551;51.068;5.826;2022-07-19T10:12:32;44.20;43.80
67752;DHT22;54551;51.068;5.826;2022-07-19T10:14:59;43.90;44.00
67752;DHT22;54551;51.068;5.826;2022-07-19T10:20:05;43.20;43.50
67752;DHT22;54551;51.068;5.826;2022-07-19T10:22:32;43.00;44.20
67752;DHT22;54551;51.068;5.826;2022-07-19T10:27:49;43.20;43.90
67752;DHT22;54551;51.068;5.826;2022-07-19T10:30:18;42.50;43.80
67752;DHT22;54551;51.068;5.826;2022-07-19T10:32:48;42.80;45.00
67752;DHT22;54551;51.068;5.826;2022-07-19T10:40:42;42.90;44.90
67752;DHT22;54551;51.068;5.826;2022-07-19T10:43:15;42.80;44.70
67752;DHT22;54551;51.068;5.826;2022-07-19T10:48:13;42.70;43.00
67752;DHT22;54551;51.068;5.826;2022-07-19T10:53:08;41.80;43.40
67752;DHT22;54551;51.068;5.826;2022-07-19T10:55:34;42.40;43.40
67752;DHT22;54551;51.068;5.826;2022-07-19T11:00:44;41.90;43.20
67752;DHT22;54551;51.068;5.826;2022-07-19T11:06:00;42.40;44.20
67752;DHT22;54551;51.068;5.826;2022-07-19T11:11:13;43.30;41.90
67752;DHT22;54551;51.068;5.826;2022-07-19T11:13:42;43.30;40.90
67752;DHT22;54551;51.068;5.826;2022-07-19T11:16:08;43.50;40.90
67752;DHT22;54551;51.068;5.826;2022-07-19T11:18:34;43.30;40.30
67752;DHT22;54551;51.068;5.826;2022-07-19T11:21:03;43.70;39.70
67752;DHT22;54551;51.068;5.826;2022-07-19T11:23:31;43.80;39.40
67752;DHT22;54551;51.068;5.826;2022-07-19T11:26:12;43.70;39.10
67752;DHT22;54551;51.068;5.826;2022-07-19T11:28:41;43.80;39.60
67752;DHT22;54551;51.068;5.826;2022-07-19T11:31:20;44.40;38.60
67752;DHT22;54551;51.068;5.826;2022-07-19T11:33:49;44.50;38.70
67752;DHT22;54551;51.068;5.826;2022-07-19T11:36:19;44.60;38.90
67752;DHT22;54551;51.068;5.826;2022-07-19T11:38:50;44.90;38.00
67752;DHT22;54551;51.068;5.826;2022-07-19T11:41:18;45.10;37.60
67752;DHT22;54551;51.068;5.826;2022-07-19T11:43:56;45.10;37.80
67752;DHT22;54551;51.068;5.826;2022-07-19T11:46:25;45.00;38.40
67752;DHT22;54551;51.068;5.826;2022-07-19T11:48:56;45.20;37.70
67752;DHT22;54551;51.068;5.826;2022-07-19T11:51:23;44.60;37.10
67752;DHT22;54551;51.068;5.826;2022-07-19T11:53:51;43.90;38.40
67752;DHT22;54551;51.068;5.826;2022-07-19T11:56:24;42.70;38.80
67752;DHT22;54551;51.068;5.826;2022-07-19T11:58:53;42.20;38.40
67752;DHT22;54551;51.068;5.826;2022-07-19T12:01:31;42.30;39.40
67752;DHT22;54551;51.068;5.826;2022-07-19T12:04:05;42.80;38.90
67752;DHT22;54551;51.068;5.826;2022-07-19T12:06:41;43.40;38.00
67752;DHT22;54551;51.068;5.826;2022-07-19T12:09:10;43.80;37.60
67752;DHT22;54551;51.068;5.826;2022-07-19T12:11:41;44.10;38.40
67752;DHT22;54551;51.068;5.826;2022-07-19T12:14:22;44.10;36.60
67752;DHT22;54551;51.068;5.826;2022-07-19T12:19:35;43.50;37.10
67752;DHT22;54551;51.068;5.826;2022-07-19T12:22:01;43.00;37.20
67752;DHT22;54551;51.068;5.826;2022-07-19T12:24:28;42.50;37.60
67752;DHT22;54551;51.068;5.826;2022-07-19T12:27:06;42.10;37.10
67752;DHT22;54551;51.068;5.826;2022-07-19T12:29:36;42.20;37.70
67752;DHT22;54551;51.068;5.826;2022-07-19T12:32:11;42.30;37.60
67752;DHT22;54551;51.068;5.826;2022-07-19T12:35:08;41.70;37.40
67752;DHT22;54551;51.068;5.826;2022-07-19T12:37:38;41.50;38.10
67752;DHT22;54551;51.068;5.826;2022-07-19T12:40:13;41.80;37.90
67752;DHT22;54551;51.068;5.826;2022-07-19T12:45:22;41.80;38.00
67752;DHT22;54551;51.068;5.826;2022-07-19T12:47:49;42.30;37.60
67752;DHT22;54551;51.068;5.826;2022-07-19T12:50:31;42.50;37.10
67752;DHT22;54551;51.068;5.826;2022-07-19T12:52:59;42.80;37.60
67752;DHT22;54551;51.068;5.826;2022-07-19T12:55:27;42.50;37.10
67752;DHT22;54551;51.068;5.826;2022-07-19T12:57:54;42.40;37.10
67752;DHT22;54551;51.068;5.826;2022-07-19T13:00:22;42.40;37.40
67752;DHT22;54551;51.068;5.826;2022-07-19T13:02:48;42.60;36.40
67752;DHT22;54551;51.068;5.826;2022-07-19T13:05:15;42.80;35.80
67752;DHT22;54551;51.068;5.826;2022-07-19T13:07:41;42.40;35.20
67752;DHT22;54551;51.068;5.826;2022-07-19T13:10:08;42.80;34.50
67752;DHT22;54551;51.068;5.826;2022-07-19T13:12:35;43.10;35.10
67752;DHT22;54551;51.068;5.826;2022-07-19T13:15:05;43.30;34.50
67752;DHT22;54551;51.068;5.826;2022-07-19T13:17:31;43.30;34.50
67752;DHT22;54551;51.068;5.826;2022-07-19T13:19:58;42.80;33.30
67752;DHT22;54551;51.068;5.826;2022-07-19T13:22:24;41.80;33.30
67752;DHT22;54551;51.068;5.826;2022-07-19T13:24:50;41.70;34.50
67752;DHT22;54551;51.068;5.826;2022-07-19T13:27:16;41.60;34.50
67752;DHT22;54551;51.068;5.826;2022-07-19T13:29:43;41.60;34.40
67752;DHT22;54551;51.068;5.826;2022-07-19T13:32:09;41.50;33.80
67752;DHT22;54551;51.068;5.826;2022-07-19T13:34:38;42.00;33.20
67752;DHT22;54551;51.068;5.826;2022-07-19T13:37:04;41.10;33.70
67752;DHT22;54551;51.068;5.826;2022-07-19T13:39:30;40.90;34.70
67752;DHT22;54551;51.068;5.826;2022-07-19T13:41:56;41.20;34.20
67752;DHT22;54551;51.068;5.826;2022-07-19T13:44:22;41.10;34.60
67752;DHT22;54551;51.068;5.826;2022-07-19T13:46:49;40.80;33.90
67752;DHT22;54551;51.068;5.826;2022-07-19T13:49:14;40.80;34.40
67752;DHT22;54551;51.068;5.826;2022-07-19T13:51:40;40.60;35.00
67752;DHT22;54551;51.068;5.826;2022-07-19T13:54:07;40.30;35.20
67752;DHT22;54551;51.068;5.826;2022-07-19T13:56:33;40.00;34.90
67752;DHT22;54551;51.068;5.826;2022-07-19T13:58:59;39.80;35.70
67752;DHT22;54551;51.068;5.826;2022-07-19T14:01:26;40.10;35.50
67752;DHT22;54551;51.068;5.826;2022-07-19T14:03:52;40.10;36.30
67752;DHT22;54551;51.068;5.826;2022-07-19T14:06:18;39.80;36.00
67752;DHT22;54551;51.068;5.826;2022-07-19T14:08:44;40.00;36.40
67752;DHT22;54551;51.068;5.826;2022-07-19T14:11:10;39.50;35.70
67752;DHT22;54551;51.068;5.826;2022-07-19T14:13:36;39.70;36.20
67752;DHT22;54551;51.068;5.826;2022-07-19T14:16:03;39.70;36.40
67752;DHT22;54551;51.068;5.826;2022-07-19T14:18:30;39.60;37.40
67752;DHT22;54551;51.068;5.826;2022-07-19T14:20:56;39.70;37.60
67752;DHT22;54551;51.068;5.826;2022-07-19T14:23:22;39.20;36.70
67752;DHT22;54551;51.068;5.826;2022-07-19T14:25:48;39.40;36.20
67752;DHT22;54551;51.068;5.826;2022-07-19T14:28:14;39.10;37.50
67752;DHT22;54551;51.068;5.826;2022-07-19T14:30:42;38.80;36.30
67752;DHT22;54551;51.068;5.826;2022-07-19T14:33:09;38.80;36.50
67752;DHT22;54551;51.068;5.826;2022-07-19T14:35:35;38.70;36.10
67752;DHT22;54551;51.068;5.826;2022-07-19T14:38:01;38.50;37.20
67752;DHT22;54551;51.068;5.826;2022-07-19T14:40:27;38.70;36.00
67752;DHT22;54551;51.068;5.826;2022-07-19T14:42:53;38.80;36.50
67752;DHT22;54551;51.068;5.826;2022-07-19T14:45:19;38.80;35.70
67752;DHT22;54551;51.068;5.826;2022-07-19T14:47:45;38.70;35.80
67752;DHT22;54551;51.068;5.826;2022-07-19T14:50:11;38.80;36.00
67752;DHT22;54551;51.068;5.826;2022-07-19T14:52:37;38.40;36.20
67752;DHT22;54551;51.068;5.826;2022-07-19T14:55:04;38.40;36.60
67752;DHT22;54551;51.068;5.826;2022-07-19T14:57:30;38.70;36.80
67752;DHT22;54551;51.068;5.826;2022-07-19T14:59:56;38.60;36.20
67752;DHT22;54551;51.068;5.826;2022-07-19T15:02:22;38.30;36.00
67752;DHT22;54551;51.068;5.826;2022-07-19T15:04:48;38.30;36.10
67752;DHT22;54551;51.068;5.826;2022-07-19T15:07:14;38.40;36.30
67752;DHT22;54551;51.068;5.826;2022-07-19T15:09:40;38.50;36.30
67752;DHT22;54551;51.068;5.826;2022-07-19T15:12:06;38.60;35.50
67752;DHT22;54551;51.068;5.826;2022-07-19T15:14:32;38.60;36.00
67752;DHT22;54551;51.068;5.826;2022-07-19T15:17:00;38.60;36.30
67752;DHT22;54551;51.068;5.826;2022-07-19T15:19:27;38.50;35.50
67752;DHT22;54551;51.068;5.826;2022-07-19T15:21:53;38.60;35.90
67752;DHT22;54551;51.068;5.826;2022-07-19T15:24:19;38.70;36.50
67752;DHT22;54551;51.068;5.826;2022-07-19T15:26:46;38.50;35.40
67752;DHT22;54551;51.068;5.826;2022-07-19T15:29:13;38.40;36.20
67752;DHT22;54551;51.068;5.826;2022-07-19T15:31:42;38.40;35.50
67752;DHT22;54551;51.068;5.826;2022-07-19T15:34:08;38.20;35.50
67752;DHT22;54551;51.068;5.826;2022-07-19T15:36:34;38.20;36.60
67752;DHT22;54551;51.068;5.826;2022-07-19T15:39:00;38.20;35.90
67752;DHT22;54551;51.068;5.826;2022-07-19T15:41:26;38.00;36.00
67752;DHT22;54551;51.068;5.826;2022-07-19T15:43:53;38.10;36.40
67752;DHT22;54551;51.068;5.826;2022-07-19T15:46:19;38.30;36.40
67752;DHT22;54551;51.068;5.826;2022-07-19T15:48:45;38.10;35.80
67752;DHT22;54551;51.068;5.826;2022-07-19T15:51:11;38.10;35.60
67752;DHT22;54551;51.068;5.826;2022-07-19T15:53:37;37.90;35.70
67752;DHT22;54551;51.068;5.826;2022-07-19T15:56:05;38.00;35.90
67752;DHT22;54551;51.068;5.826;2022-07-19T15:58:31;38.00;36.20
67752;DHT22;54551;51.068;5.826;2022-07-19T16:00:57;38.00;36.00